Weather at Hallegg Heliport

Public forecast

Using degrees Celsius for public forecast. Weather courtesy of forecast.io.

Closest aviation weather report (METAR) to Hallegg Heliport

Closest report is Klagenfurt Airport, 3.8 nm (7.0 km) E.

2024/05/20 05:20 (retrieved 26 minutes ago)

LOWK 200520Z AUTO VRB01KT 9999 NCD 14/10 Q1013 NOSIG

Closest aviation forecast (TAF) to Hallegg Heliport

Forecast is more than 6 hours old.

Closest forecast is Bolzano Airport, 121.1 nm (224.2 km) W.

2024/05/19 18:21 (retrieved 11 hours ago)

TAF TAF LIPB 192210Z 1918/2018 CNL